Pisces — WDE7319 — position and weather

sailwx.info

Track history (hours):
 
Tides and Currents Weather Stations Pressure Air Temp Water Temp Dewpoint Dewpoint Depression Visibility Wind Speed Wind Dir Waves Ship Positions

Pisces

Owner: San Francisco Bay Area Water Emergency Transportation Authority, San Francisco, CA. More information available from US FCC via Universal Licensing System and Coast Guard Vessel Documentation Center.

Last reported at 2017-Oct-20 02:48 UTC. Time now 2017-Oct-20 12:45 UTC.
Position N 37°48' W 122°17'.

Length 35 m.

MMSI: 367391830.

Date/timePositionNaut miles runAvg speedWind from/ knotsBaromVisibWave heightAir tempDewpointWater temp
2017-Oct-20 02:48N 37°48' W 122°17'1 4.6
2017-Oct-20 02:31N 37°48' W 122°18'816.8
2017-Oct-20 02:00N 37°40' W 122°23'714.2
2017-Oct-20 01:30N 37°44' W 122°16'714.5
2017-Oct-20 01:01N 37°48' W 122°24'5 9.2
2017-Oct-20 00:31N 37°47' W 122°18'1 1.5
2017-Oct-20 00:00N 37°48' W 122°17'714.6
2017-Oct-19 23:30N 37°41' W 122°21'3 5.3
2017-Oct-19 23:01N 37°44' W 122°21'5 9.6
2017-Oct-19 22:30N 37°48' W 122°24'0 0.0
2017-Oct-19 22:00N 37°48' W 122°24'0 0.0
2017-Oct-19 21:30N 37°48' W 122°24'0 0.0
2017-Oct-19 21:00N 37°48' W 122°24'0 0.0
2017-Oct-19 20:27N 37°48' W 122°24'0 0.0
2017-Oct-19 20:00N 37°48' W 122°24'0 0.0
2017-Oct-19 19:30N 37°48' W 122°24'0 0.0
2017-Oct-19 18:57N 37°48' W 122°24'1 2.2
2017-Oct-19 18:30N 37°49' W 122°25'1 1.9
2017-Oct-19 18:00N 37°49' W 122°24'5 9.8
2017-Oct-19 17:30N 37°47' W 122°18'0 0.3
2017-Oct-19 17:00N 37°48' W 122°18'5 7.7
2017-Oct-19 16:25N 37°48' W 122°24'0 0.0
2017-Oct-19 15:59N 37°48' W 122°24'815.6
2017-Oct-19 15:28N 37°40' W 122°23'816.4
2017-Oct-19 15:00N 37°47' W 122°21'2 4.7
2017-Oct-19 14:30N 37°47' W 122°18'5 9.8
2017-Oct-19 14:00N 37°48' W 122°24'0 0.0
2017-Oct-19 03:24N 37°48' W 122°24'4 9.6
2017-Oct-19 03:01N 37°48' W 122°19'0 0.9
2017-Oct-19 02:31N 37°48' W 122°19'816.8
2017-Oct-19 02:00N 37°40' W 122°23'714.2
2017-Oct-19 01:30N 37°44' W 122°15'714.5
2017-Oct-19 01:00N 37°48' W 122°24'4 8.5
2017-Oct-19 00:30N 37°48' W 122°18'1 2.2
2017-Oct-19 00:01N 37°48' W 122°17'714.3
2017-Oct-18 23:31N 37°41' W 122°21'2 3.9
2017-Oct-18 23:00N 37°40' W 122°23'815.9
2017-Oct-18 22:30N 37°48' W 122°24'0 0.9
2017-Oct-18 22:00N 37°48' W 122°24'0 0.0
2017-Oct-18 21:30N 37°48' W 122°24'1 1.7
2017-Oct-18 21:00N 37°49' W 122°24'1 1.1
2017-Oct-18 20:30N 37°49' W 122°25'0 0.1
2017-Oct-18 20:00N 37°49' W 122°25'1 1.8
2017-Oct-18 19:30N 37°48' W 122°24'0 0.0
2017-Oct-18 19:00N 37°48' W 122°24'0 0.0
2017-Oct-18 18:31N 37°48' W 122°24'0 0.0
2017-Oct-18 18:01N 37°48' W 122°24'0 0.0
2017-Oct-18 17:30N 37°48' W 122°24'0 0.0
2017-Oct-18 17:00N 37°48' W 122°24'0 0.9
2017-Oct-18 16:30N 37°48' W 122°23'815.8
2017-Oct-18 16:00N 37°40' W 122°23'715.0
2017-Oct-18 15:31N 37°47' W 122°21'2 4.3
2017-Oct-18 14:58N 37°47' W 122°18'3 3.4
2017-Oct-18 14:00N 37°46' W 122°21'3 6.6
2017-Oct-18 13:30N 37°47' W 122°18'1 1.4
2017-Oct-18 13:00N 37°48' W 122°17'0 0.0
2017-Oct-18 02:50N 37°48' W 122°17'1 4.1
2017-Oct-18 02:31N 37°48' W 122°18'816.8
2017-Oct-18 02:00N 37°40' W 122°23'713.8
2017-Oct-18 01:31N 37°44' W 122°16'714.0
2017-Oct-18 01:00N 37°48' W 122°24'4 8.4
2017-Oct-18 00:31N 37°48' W 122°18'1 2.3
2017-Oct-18 00:01N 37°48' W 122°17'815.3
2017-Oct-17 23:31N 37°41' W 122°21'1 2.9
2017-Oct-17 23:00N 37°40' W 122°23'815.8
2017-Oct-17 22:30N 37°48' W 122°24'0 0.8
2017-Oct-17 22:00N 37°48' W 122°24'0 0.0
2017-Oct-17 21:30N 37°48' W 122°24'0 0.0
2017-Oct-17 21:00N 37°48' W 122°24'0 0.0
2017-Oct-17 20:30N 37°48' W 122°24'0 0.0
2017-Oct-17 20:00N 37°48' W 122°24'0 0.0
2017-Oct-17 19:30N 37°48' W 122°24'0 0.0
2017-Oct-17 19:00N 37°48' W 122°24'1 1.9
2017-Oct-17 18:30N 37°49' W 122°25'1 2.6
2017-Oct-17 18:00N 37°48' W 122°24'5 9.3
2017-Oct-17 17:30N 37°47' W 122°18'2 4.0
2017-Oct-17 17:01N 37°48' W 122°20'4 8.2
2017-Oct-17 16:31N 37°44' W 122°21'3 5.1
2017-Oct-17 16:01N 37°41' W 122°21'714.2
2017-Oct-17 15:30N 37°48' W 122°17'2 3.8
2017-Oct-17 15:00N 37°48' W 122°19'816.7
2017-Oct-17 14:30N 37°40' W 122°23'816.7
2017-Oct-17 14:00N 37°48' W 122°20'2 3.5
2017-Oct-17 13:31N 37°47' W 122°18'5 9.7
2017-Oct-17 13:00N 37°48' W 122°24'0 0.0
2017-Oct-17 03:16N 37°48' W 122°24'313.1
2017-Oct-17 03:01N 37°48' W 122°20'0 0.4
2017-Oct-17 02:31N 37°48' W 122°19'816.6
2017-Oct-17 02:00N 37°40' W 122°23'713.9
2017-Oct-17 01:30N 37°44' W 122°16'713.2
2017-Oct-17 00:58N 37°48' W 122°24'5 9.2
2017-Oct-17 00:28N 37°47' W 122°18'1 1.6
2017-Oct-17 00:01N 37°48' W 122°17'815.4
2017-Oct-16 23:30N 37°41' W 122°21'1 2.7
2017-Oct-16 23:00N 37°40' W 122°23'815.4
2017-Oct-16 22:29N 37°48' W 122°24'0 0.8
2017-Oct-16 21:59N 37°48' W 122°24'0 0.0
2017-Oct-16 21:29N 37°48' W 122°24'0 0.5
2017-Oct-16 21:00N 37°48' W 122°24'1 1.9
2017-Oct-16 20:30N 37°49' W 122°25'0 0.8
2017-Oct-16 20:00N 37°49' W 122°24'1 1.5
2017-Oct-16 19:30N 37°48' W 122°24'0 0.0
2017-Oct-16 19:00N 37°48' W 122°24'0 0.0
2017-Oct-16 18:30N 37°48' W 122°24'0 0.0
2017-Oct-16 18:00N 37°48' W 122°24'0 0.0
2017-Oct-16 17:30N 37°48' W 122°24'0 0.0
2017-Oct-16 17:00N 37°48' W 122°24'4 7.4
2017-Oct-16 16:30N 37°45' W 122°21'510.0
2017-Oct-16 16:00N 37°40' W 122°22'916.6
2017-Oct-16 15:29N 37°48' W 122°17'3 5.5
2017-Oct-16 15:01N 37°48' W 122°20'815.6
2017-Oct-16 14:29N 37°40' W 122°23'9 8.7
2017-Oct-16 13:29N 37°47' W 122°18'816.8
2017-Oct-16 13:00N 37°40' W 122°22'  
2017-Oct-14 03:40N 37°40' W 122°23'1 5.0
2017-Oct-14 03:31N 37°40' W 122°22'816.3
2017-Oct-14 03:00N 37°48' W 122°17'1 2.2
2017-Oct-14 02:31N 37°48' W 122°19'816.7
2017-Oct-14 02:00N 37°40' W 122°23'713.7
2017-Oct-14 01:31N 37°44' W 122°16'713.9
2017-Oct-14 01:00N 37°48' W 122°24'4 8.7
2017-Oct-14 00:31N 37°47' W 122°18'1 1.9
2017-Oct-14 00:01N 37°48' W 122°17'714.7
2017-Oct-13 23:31N 37°41' W 122°21'2 3.5
2017-Oct-13 23:01N 37°40' W 122°23'815.8
2017-Oct-13 22:30N 37°48' W 122°24'0 0.5
2017-Oct-13 22:00N 37°48' W 122°23'1 1.3
2017-Oct-13 21:30N 37°48' W 122°24'1 1.8
2017-Oct-13 21:00N 37°49' W 122°25'1 1.9
2017-Oct-13 20:30N 37°48' W 122°24'0 0.3
2017-Oct-13 20:00N 37°48' W 122°24'0 0.0
2017-Oct-13 19:30N 37°48' W 122°24'0 0.0
2017-Oct-13 19:00N 37°48' W 122°24'0 0.0
2017-Oct-13 18:30N 37°48' W 122°24'0 0.0
2017-Oct-13 18:00N 37°48' W 122°24'0 0.0
2017-Oct-13 17:30N 37°48' W 122°24'0 0.0
2017-Oct-13 17:00N 37°48' W 122°24'0 0.0
2017-Oct-13 16:30N 37°48' W 122°24'0 0.0
2017-Oct-13 16:00N 37°48' W 122°24'714.1
2017-Oct-13 15:30N 37°41' W 122°22'4 9.0
2017-Oct-13 15:01N 37°46' W 122°21'3 6.0
2017-Oct-13 14:30N 37°47' W 122°18'5 9.9
2017-Oct-13 14:00N 37°48' W 122°24'0 0.0
2017-Oct-13 13:30N 37°48' W 122°24'0 0.0
2017-Oct-13 04:29N 37°48' W 122°24'511.5
2017-Oct-13 04:01N 37°48' W 122°17'4 7.8
2017-Oct-13 03:30N 37°48' W 122°22'2 4.7
2017-Oct-13 03:00N 37°49' W 122°25'0 0.0
2017-Oct-13 02:30N 37°49' W 122°25'0 0.1
2017-Oct-13 02:01N 37°49' W 122°25'0 0.0
2017-Oct-13 01:31N 37°49' W 122°25'612.4
2017-Oct-13 01:00N 37°48' W 122°17'713.4
2017-Oct-13 00:30N 37°42' W 122°21'2 4.5
2017-Oct-13 00:00N 37°40' W 122°23'0 0.1
2017-Oct-12 23:31N 37°40' W 122°23'816.4
2017-Oct-12 23:00N 37°48' W 122°24'0 0.0
2017-Oct-12 22:30N 37°48' W 122°24'0 0.0
2017-Oct-12 22:00N 37°48' W 122°24'0 0.0
2017-Oct-12 21:30N 37°48' W 122°24'0 0.0
2017-Oct-12 21:00N 37°48' W 122°24'0 0.0
2017-Oct-12 20:30N 37°48' W 122°24'0 0.0
2017-Oct-12 20:00N 37°48' W 122°24'0 0.0
2017-Oct-12 19:30N 37°48' W 122°24'0 0.0
2017-Oct-12 19:00N 37°48' W 122°24'1 1.4
2017-Oct-12 18:30N 37°49' W 122°24'0 0.8
2017-Oct-12 18:00N 37°48' W 122°24'5 9.9
2017-Oct-12 17:31N 37°47' W 122°18'0 0.5
2017-Oct-12 17:01N 37°48' W 122°17'5 9.5
2017-Oct-12 16:30N 37°48' W 122°24'0 0.2
2017-Oct-12 16:01N 37°48' W 122°23'815.9
2017-Oct-12 15:31N 37°40' W 122°23'714.3
2017-Oct-12 15:01N 37°47' W 122°21'2 4.9
2017-Oct-12 14:30N 37°47' W 122°18'5 9.8
2017-Oct-12 14:00N 37°48' W 122°24'0 0.0
2017-Oct-12 04:29N 37°48' W 122°24'611.7
2017-Oct-12 04:01N 37°48' W 122°17'4 8.6
2017-Oct-12 03:31N 37°48' W 122°22'2 4.2
2017-Oct-12 03:00N 37°49' W 122°25'0 0.0
2017-Oct-12 02:30N 37°49' W 122°25'0 0.1
2017-Oct-12 02:01N 37°49' W 122°25'0 0.1
2017-Oct-12 01:31N 37°49' W 122°25'612.1
2017-Oct-12 01:01N 37°48' W 122°17'713.4
2017-Oct-12 00:31N 37°42' W 122°21'2 4.3
2017-Oct-12 00:00N 37°40' W 122°23'0 0.3
2017-Oct-11 23:30N 37°40' W 122°22'816.5
2017-Oct-11 23:00N 37°48' W 122°24'0 0.0
2017-Oct-11 22:30N 37°48' W 122°24'0 0.0
2017-Oct-11 22:01N 37°48' W 122°24'0 0.0
2017-Oct-11 21:31N 37°48' W 122°24'8 0.4
2017-Oct-10 23:59N 37°40' W 122°23'1 1.1
2017-Oct-10 23:30N 37°40' W 122°22'814.5
2017-Oct-10 22:56N 37°48' W 122°24'0 0.0
2017-Oct-10 22:29N 37°48' W 122°24'0 0.0
2017-Oct-10 21:53N 37°48' W 122°24'0 0.0
2017-Oct-10 21:29N 37°48' W 122°24'0 0.0
2017-Oct-10 20:59N 37°48' W 122°24'0 0.0
2017-Oct-10 20:29N 37°48' W 122°24'0 0.0
2017-Oct-10 19:59N 37°48' W 122°24'0 0.0
2017-Oct-10 19:29N 37°48' W 122°24'0 0.0
2017-Oct-10 18:56N 37°48' W 122°24'1 1.9
2017-Oct-10 18:28N 37°49' W 122°25'1 1.4
2017-Oct-10 18:00N 37°49' W 122°24'510.2
2017-Oct-10 17:30N 37°47' W 122°18'0 0.5
2017-Oct-10 17:00N 37°48' W 122°17'5 9.5
2017-Oct-10 16:30N 37°48' W 122°24'0 0.0
2017-Oct-10 16:00N 37°48' W 122°24'815.8
2017-Oct-10 15:30N 37°40' W 122°23'714.8
2017-Oct-10 15:00N 37°47' W 122°21'3 2.8
2017-Oct-10 14:00N 37°48' W 122°24'0 0.0
2017-Oct-10 13:30N 37°48' W 122°24'0 0.0
2017-Oct-10 04:32N 37°48' W 122°24'0 0.1
2017-Oct-10 04:29N 37°48' W 122°24'611.6
2017-Oct-10 04:00N 37°48' W 122°17'5 9.0
2017-Oct-10 03:31N 37°48' W 122°23'2 3.8
2017-Oct-10 03:00N 37°49' W 122°25'  
Track history (hours):
 
Tides and Currents Weather Stations Pressure Air Temp Water Temp Dewpoint Dewpoint Depression Visibility Wind Speed Wind Dir Waves Ship Positions

Pisces

Owner: San Francisco Bay Area Water Emergency Transportation Authority, San Francisco, CA. More information available from US FCC via Universal Licensing System and Coast Guard Vessel Documentation Center.

Last reported at 2017-Oct-20 02:48 UTC. Time now 2017-Oct-20 12:45 UTC.
Position N 37°48' W 122°17'.

Length 35 m.

MMSI: 367391830.

Date/timePositionNaut miles runAvg speedWind from/ knotsBaromVisibWave heightAir tempDewpointWater temp
2017-Oct-20 02:48N 37°48' W 122°17'1 4.6
2017-Oct-20 02:31N 37°48' W 122°18'816.8
2017-Oct-20 02:00N 37°40' W 122°23'714.2
2017-Oct-20 01:30N 37°44' W 122°16'714.5
2017-Oct-20 01:01N 37°48' W 122°24'5 9.2
2017-Oct-20 00:31N 37°47' W 122°18'1 1.5
2017-Oct-20 00:00N 37°48' W 122°17'714.6
2017-Oct-19 23:30N 37°41' W 122°21'3 5.3
2017-Oct-19 23:01N 37°44' W 122°21'5 9.6
2017-Oct-19 22:30N 37°48' W 122°24'0 0.0
2017-Oct-19 22:00N 37°48' W 122°24'0 0.0
2017-Oct-19 21:30N 37°48' W 122°24'0 0.0
2017-Oct-19 21:00N 37°48' W 122°24'0 0.0
2017-Oct-19 20:27N 37°48' W 122°24'0 0.0
2017-Oct-19 20:00N 37°48' W 122°24'0 0.0
2017-Oct-19 19:30N 37°48' W 122°24'0 0.0
2017-Oct-19 18:57N 37°48' W 122°24'1 2.2
2017-Oct-19 18:30N 37°49' W 122°25'1 1.9
2017-Oct-19 18:00N 37°49' W 122°24'5 9.8
2017-Oct-19 17:30N 37°47' W 122°18'0 0.3
2017-Oct-19 17:00N 37°48' W 122°18'5 7.7
2017-Oct-19 16:25N 37°48' W 122°24'0 0.0
2017-Oct-19 15:59N 37°48' W 122°24'815.6
2017-Oct-19 15:28N 37°40' W 122°23'816.4
2017-Oct-19 15:00N 37°47' W 122°21'2 4.7
2017-Oct-19 14:30N 37°47' W 122°18'5 9.8
2017-Oct-19 14:00N 37°48' W 122°24'0 0.0
2017-Oct-19 03:24N 37°48' W 122°24'4 9.6
2017-Oct-19 03:01N 37°48' W 122°19'0 0.9
2017-Oct-19 02:31N 37°48' W 122°19'816.8
2017-Oct-19 02:00N 37°40' W 122°23'714.2
2017-Oct-19 01:30N 37°44' W 122°15'714.5
2017-Oct-19 01:00N 37°48' W 122°24'4 8.5
2017-Oct-19 00:30N 37°48' W 122°18'1 2.2
2017-Oct-19 00:01N 37°48' W 122°17'714.3
2017-Oct-18 23:31N 37°41' W 122°21'2 3.9
2017-Oct-18 23:00N 37°40' W 122°23'815.9
2017-Oct-18 22:30N 37°48' W 122°24'0 0.9
2017-Oct-18 22:00N 37°48' W 122°24'0 0.0
2017-Oct-18 21:30N 37°48' W 122°24'1 1.7
2017-Oct-18 21:00N 37°49' W 122°24'1 1.1
2017-Oct-18 20:30N 37°49' W 122°25'0 0.1
2017-Oct-18 20:00N 37°49' W 122°25'1 1.8
2017-Oct-18 19:30N 37°48' W 122°24'0 0.0
2017-Oct-18 19:00N 37°48' W 122°24'0 0.0
2017-Oct-18 18:31N 37°48' W 122°24'0 0.0
2017-Oct-18 18:01N 37°48' W 122°24'0 0.0
2017-Oct-18 17:30N 37°48' W 122°24'0 0.0
2017-Oct-18 17:00N 37°48' W 122°24'0 0.9
2017-Oct-18 16:30N 37°48' W 122°23'815.8
2017-Oct-18 16:00N 37°40' W 122°23'715.0
2017-Oct-18 15:31N 37°47' W 122°21'2 4.3
2017-Oct-18 14:58N 37°47' W 122°18'3 3.4
2017-Oct-18 14:00N 37°46' W 122°21'3 6.6
2017-Oct-18 13:30N 37°47' W 122°18'1 1.4
2017-Oct-18 13:00N 37°48' W 122°17'0 0.0
2017-Oct-18 02:50N 37°48' W 122°17'1 4.1
2017-Oct-18 02:31N 37°48' W 122°18'816.8
2017-Oct-18 02:00N 37°40' W 122°23'713.8
2017-Oct-18 01:31N 37°44' W 122°16'714.0
2017-Oct-18 01:00N 37°48' W 122°24'4 8.4
2017-Oct-18 00:31N 37°48' W 122°18'1 2.3
2017-Oct-18 00:01N 37°48' W 122°17'815.3
2017-Oct-17 23:31N 37°41' W 122°21'1 2.9
2017-Oct-17 23:00N 37°40' W 122°23'815.8
2017-Oct-17 22:30N 37°48' W 122°24'0 0.8
2017-Oct-17 22:00N 37°48' W 122°24'0 0.0
2017-Oct-17 21:30N 37°48' W 122°24'0 0.0
2017-Oct-17 21:00N 37°48' W 122°24'0 0.0
2017-Oct-17 20:30N 37°48' W 122°24'0 0.0
2017-Oct-17 20:00N 37°48' W 122°24'0 0.0
2017-Oct-17 19:30N 37°48' W 122°24'0 0.0
2017-Oct-17 19:00N 37°48' W 122°24'1 1.9
2017-Oct-17 18:30N 37°49' W 122°25'1 2.6
2017-Oct-17 18:00N 37°48' W 122°24'5 9.3
2017-Oct-17 17:30N 37°47' W 122°18'2 4.0
2017-Oct-17 17:01N 37°48' W 122°20'4 8.2
2017-Oct-17 16:31N 37°44' W 122°21'3 5.1
2017-Oct-17 16:01N 37°41' W 122°21'714.2
2017-Oct-17 15:30N 37°48' W 122°17'2 3.8
2017-Oct-17 15:00N 37°48' W 122°19'816.7
2017-Oct-17 14:30N 37°40' W 122°23'816.7
2017-Oct-17 14:00N 37°48' W 122°20'2 3.5
2017-Oct-17 13:31N 37°47' W 122°18'5 9.7
2017-Oct-17 13:00N 37°48' W 122°24'0 0.0
2017-Oct-17 03:16N 37°48' W 122°24'313.1
2017-Oct-17 03:01N 37°48' W 122°20'0 0.4
2017-Oct-17 02:31N 37°48' W 122°19'816.6
2017-Oct-17 02:00N 37°40' W 122°23'713.9
2017-Oct-17 01:30N 37°44' W 122°16'713.2
2017-Oct-17 00:58N 37°48' W 122°24'5 9.2
2017-Oct-17 00:28N 37°47' W 122°18'1 1.6
2017-Oct-17 00:01N 37°48' W 122°17'815.4
2017-Oct-16 23:30N 37°41' W 122°21'1 2.7
2017-Oct-16 23:00N 37°40' W 122°23'815.4
2017-Oct-16 22:29N 37°48' W 122°24'0 0.8
2017-Oct-16 21:59N 37°48' W 122°24'0 0.0
2017-Oct-16 21:29N 37°48' W 122°24'0 0.5
2017-Oct-16 21:00N 37°48' W 122°24'1 1.9
2017-Oct-16 20:30N 37°49' W 122°25'0 0.8
2017-Oct-16 20:00N 37°49' W 122°24'1 1.5
2017-Oct-16 19:30N 37°48' W 122°24'0 0.0
2017-Oct-16 19:00N 37°48' W 122°24'0 0.0
2017-Oct-16 18:30N 37°48' W 122°24'0 0.0
2017-Oct-16 18:00N 37°48' W 122°24'0 0.0
2017-Oct-16 17:30N 37°48' W 122°24'0 0.0
2017-Oct-16 17:00N 37°48' W 122°24'4 7.4
2017-Oct-16 16:30N 37°45' W 122°21'510.0
2017-Oct-16 16:00N 37°40' W 122°22'916.6
2017-Oct-16 15:29N 37°48' W 122°17'3 5.5
2017-Oct-16 15:01N 37°48' W 122°20'815.6
2017-Oct-16 14:29N 37°40' W 122°23'9 8.7
2017-Oct-16 13:29N 37°47' W 122°18'816.8
2017-Oct-16 13:00N 37°40' W 122°22'  
2017-Oct-14 03:40N 37°40' W 122°23'1 5.0
2017-Oct-14 03:31N 37°40' W 122°22'816.3
2017-Oct-14 03:00N 37°48' W 122°17'1 2.2
2017-Oct-14 02:31N 37°48' W 122°19'816.7
2017-Oct-14 02:00N 37°40' W 122°23'713.7
2017-Oct-14 01:31N 37°44' W 122°16'713.9
2017-Oct-14 01:00N 37°48' W 122°24'4 8.7
2017-Oct-14 00:31N 37°47' W 122°18'1 1.9
2017-Oct-14 00:01N 37°48' W 122°17'714.7
2017-Oct-13 23:31N 37°41' W 122°21'2 3.5
2017-Oct-13 23:01N 37°40' W 122°23'815.8
2017-Oct-13 22:30N 37°48' W 122°24'0 0.5
2017-Oct-13 22:00N 37°48' W 122°23'1 1.3
2017-Oct-13 21:30N 37°48' W 122°24'1 1.8
2017-Oct-13 21:00N 37°49' W 122°25'1 1.9
2017-Oct-13 20:30N 37°48' W 122°24'0 0.3
2017-Oct-13 20:00N 37°48' W 122°24'0 0.0
2017-Oct-13 19:30N 37°48' W 122°24'0 0.0
2017-Oct-13 19:00N 37°48' W 122°24'0 0.0
2017-Oct-13 18:30N 37°48' W 122°24'0 0.0
2017-Oct-13 18:00N 37°48' W 122°24'0 0.0
2017-Oct-13 17:30N 37°48' W 122°24'0 0.0
2017-Oct-13 17:00N 37°48' W 122°24'0 0.0
2017-Oct-13 16:30N 37°48' W 122°24'0 0.0
2017-Oct-13 16:00N 37°48' W 122°24'714.1
2017-Oct-13 15:30N 37°41' W 122°22'4 9.0
2017-Oct-13 15:01N 37°46' W 122°21'3 6.0
2017-Oct-13 14:30N 37°47' W 122°18'5 9.9
2017-Oct-13 14:00N 37°48' W 122°24'0 0.0
2017-Oct-13 13:30N 37°48' W 122°24'0 0.0
2017-Oct-13 04:29N 37°48' W 122°24'511.5
2017-Oct-13 04:01N 37°48' W 122°17'4 7.8
2017-Oct-13 03:30N 37°48' W 122°22'2 4.7
2017-Oct-13 03:00N 37°49' W 122°25'0 0.0
2017-Oct-13 02:30N 37°49' W 122°25'0 0.1
2017-Oct-13 02:01N 37°49' W 122°25'0 0.0
2017-Oct-13 01:31N 37°49' W 122°25'612.4
2017-Oct-13 01:00N 37°48' W 122°17'713.4
2017-Oct-13 00:30N 37°42' W 122°21'2 4.5
2017-Oct-13 00:00N 37°40' W 122°23'0 0.1
2017-Oct-12 23:31N 37°40' W 122°23'816.4
2017-Oct-12 23:00N 37°48' W 122°24'0 0.0
2017-Oct-12 22:30N 37°48' W 122°24'0 0.0
2017-Oct-12 22:00N 37°48' W 122°24'0 0.0
2017-Oct-12 21:30N 37°48' W 122°24'0 0.0
2017-Oct-12 21:00N 37°48' W 122°24'0 0.0
2017-Oct-12 20:30N 37°48' W 122°24'0 0.0
2017-Oct-12 20:00N 37°48' W 122°24'0 0.0
2017-Oct-12 19:30N 37°48' W 122°24'0 0.0
2017-Oct-12 19:00N 37°48' W 122°24'1 1.4
2017-Oct-12 18:30N 37°49' W 122°24'0 0.8
2017-Oct-12 18:00N 37°48' W 122°24'5 9.9
2017-Oct-12 17:31N 37°47' W 122°18'0 0.5
2017-Oct-12 17:01N 37°48' W 122°17'5 9.5
2017-Oct-12 16:30N 37°48' W 122°24'0 0.2
2017-Oct-12 16:01N 37°48' W 122°23'815.9
2017-Oct-12 15:31N 37°40' W 122°23'714.3
2017-Oct-12 15:01N 37°47' W 122°21'2 4.9
2017-Oct-12 14:30N 37°47' W 122°18'5 9.8
2017-Oct-12 14:00N 37°48' W 122°24'0 0.0
2017-Oct-12 04:29N 37°48' W 122°24'611.7
2017-Oct-12 04:01N 37°48' W 122°17'4 8.6
2017-Oct-12 03:31N 37°48' W 122°22'2 4.2
2017-Oct-12 03:00N 37°49' W 122°25'0 0.0
2017-Oct-12 02:30N 37°49' W 122°25'0 0.1
2017-Oct-12 02:01N 37°49' W 122°25'0 0.1
2017-Oct-12 01:31N 37°49' W 122°25'612.1
2017-Oct-12 01:01N 37°48' W 122°17'713.4
2017-Oct-12 00:31N 37°42' W 122°21'2 4.3
2017-Oct-12 00:00N 37°40' W 122°23'0 0.3
2017-Oct-11 23:30N 37°40' W 122°22'816.5
2017-Oct-11 23:00N 37°48' W 122°24'0 0.0
2017-Oct-11 22:30N 37°48' W 122°24'0 0.0
2017-Oct-11 22:01N 37°48' W 122°24'0 0.0
2017-Oct-11 21:31N 37°48' W 122°24'8 0.4
2017-Oct-10 23:59N 37°40' W 122°23'1 1.1
2017-Oct-10 23:30N 37°40' W 122°22'814.5
2017-Oct-10 22:56N 37°48' W 122°24'0 0.0
2017-Oct-10 22:29N 37°48' W 122°24'0 0.0
2017-Oct-10 21:53N 37°48' W 122°24'0 0.0
2017-Oct-10 21:29N 37°48' W 122°24'0 0.0
2017-Oct-10 20:59N 37°48' W 122°24'0 0.0
2017-Oct-10 20:29N 37°48' W 122°24'0 0.0
2017-Oct-10 19:59N 37°48' W 122°24'0 0.0
2017-Oct-10 19:29N 37°48' W 122°24'0 0.0
2017-Oct-10 18:56N 37°48' W 122°24'1 1.9
2017-Oct-10 18:28N 37°49' W 122°25'1 1.4
2017-Oct-10 18:00N 37°49' W 122°24'510.2
2017-Oct-10 17:30N 37°47' W 122°18'0 0.5
2017-Oct-10 17:00N 37°48' W 122°17'5 9.5
2017-Oct-10 16:30N 37°48' W 122°24'0 0.0
2017-Oct-10 16:00N 37°48' W 122°24'815.8
2017-Oct-10 15:30N 37°40' W 122°23'714.8
2017-Oct-10 15:00N 37°47' W 122°21'3 2.8
2017-Oct-10 14:00N 37°48' W 122°24'0 0.0
2017-Oct-10 13:30N 37°48' W 122°24'0 0.0
2017-Oct-10 04:32N 37°48' W 122°24'0 0.1
2017-Oct-10 04:29N 37°48' W 122°24'611.6
2017-Oct-10 04:00N 37°48' W 122°17'5 9.0
2017-Oct-10 03:31N 37°48' W 122°23'2 3.8
2017-Oct-10 03:00N 37°49' W 122°25'  

Dump ship's entire track history